• Join FlightAware (Why Join?)
  • Login
  • US Flag GB Flag 
01:09 EDT


 

Airport Tracker/Info


-or-


 

Live Flight TrackerFlight Track Log ✈ N990LS ✈ 15-Jul-2013 ✈ KSAV - KSFB

Flight Track Log - Related Links

Times and Time Zones

All times are in EDT time to prevent confusion due to time zone crossing. See the N990LS flight status page for this flight to view local times or setup timezone preferences in your user account.

Time Position Orientation Groundspeed Altitude Reporting Facility
EDT Latitude Longitude Course Direction KTS MPH feet Rate Location/Type
16:42 32.0764 -81.0906 150° Southeast 131 151 5,400  Level Jacksonville Center
16:43 32.0350 -81.1083 200° South 132 152 6,500 1,200 Climbing Jacksonville Center
16:44 31.9953 -81.1142 187° South 154 177 7,800 1,140 Climbing Jacksonville Center
16:45 31.9494 -81.1225 189° South 161 185 8,800 1,080 Climbing Jacksonville Center
16:46 31.8994 -81.1258 183° South 166 191 10,000 1,080 Climbing Jacksonville Center
16:47 31.8556 -81.1242 178° South 161 185 11,000 1,140 Climbing Jacksonville Center
16:48 31.8139 -81.1250 181° South 161 185 12,300 1,140 Climbing Jacksonville Center
16:49 31.7617 -81.1283 183° South 167 192 13,300 780 Climbing Jacksonville Center
16:50 31.7117 -81.1269 179° South 176 203 13,900 720 Climbing Jacksonville Center
16:51 31.6658 -81.1278 181° South 182 209 14,800 900 Climbing Jacksonville Center
16:52 31.6072 -81.1264 179° South 182 209 15,800 780 Climbing Jacksonville Center
16:53 31.5569 -81.1225 176° South 182 209 16,400 600 Climbing Jacksonville Center
16:54 31.5089 -81.1186 176° South 182 209 17,100 600 Climbing Jacksonville Center
16:55 31.4506 -81.1222 183° South 193 222 17,700 420 Climbing Jacksonville Center
16:56 31.4003 -81.1181 176° South 201 231 18,000 60 Climbing Jacksonville Center
16:57 31.3336 -81.1219 183° South 207 238 17,900  Descending Jacksonville Center
16:58 31.2731 -81.1206 179° South 217 250 18,000  Climbing Jacksonville Center
16:59 31.2147 -81.1289 187° South 217 250 18,000 -60 Level Jacksonville Center
17:00 31.1542 -81.1300 176° South 217 250 17,900 -420 Descending Jacksonville Center
17:01 31.0894 -81.1264 177° South 222 255 17,200 -660 Descending Jacksonville Center
17:02 31.0225 -81.1206 176° South 236 272 16,600 -600 Descending Jacksonville Center
17:03 30.9578 -81.1217 181° South 236 272 16,000 -300 Descending Jacksonville Center
17:04 30.8994 -81.1228 181° South 231 266 16,000  Level Jacksonville Center
17:05 30.8389 -81.1214 179° South 231 266 16,000  Level Jacksonville Center
17:06 30.7761 -81.1178 177° South 218 251 16,000  Level Jacksonville Center
17:07 30.7197 -81.1189 181° South 213 245 16,000  Level Jacksonville Center
17:08 30.6633 -81.1175 179° South 213 245 16,000  Level Jacksonville Center
17:09 30.6069 -81.1186 181° South 213 245 16,000  Level Jacksonville Center
17:10 30.5486 -81.1219 183° South 213 245 16,000  Level Jacksonville Center
17:11 30.4922 -81.1281 185° South 213 245 16,000  Level Jacksonville Center
17:12 30.4381 -81.1314 183° South 208 239 16,000  Level Jacksonville Center
17:13 30.3839 -81.1322 181° South 203 234 16,000  Level Jacksonville Center
17:14 30.3275 -81.1308 179° South 203 234 16,000  Level Jacksonville Center
17:15 30.2753 -81.1294 179° South 193 222 16,000  Level Jacksonville Center
17:16 30.2292 -81.1303 181° South 193 222 16,000  Level Jacksonville Center
17:17 30.1772 -81.1314 181° South 193 222 16,100  Climbing Jacksonville Center
17:18 30.1208 -81.1325 181° South 199 229 16,100  Level Jacksonville Center
17:19 30.0664 -81.1308 178° South 199 229 16,100  Level Jacksonville Center
17:20 30.0100 -81.1319 181° South 199 229 16,100  Level Jacksonville Center
17:21 29.9578 -81.1306 179° South 199 229 16,100 -240 Level Jacksonville Center
17:22 29.9078 -81.1314 181° South 190 219 15,700 -780 Descending Jacksonville Center
17:22 29.8556 -81.1300 179° South 199 229 14,800 -1,020 Descending Jacksonville Center
17:24 29.7972 -81.1311 181° South 212 244 13,800 -960 Descending Jacksonville Center
17:25 29.7386 -81.1322 181° South 209 241 12,900 -840 Descending Jacksonville Center
17:26 29.6761 -81.1333 181° South 204 235 12,000 -840 Descending Jacksonville Center
17:27 29.6281 -81.1294 176° South 198 228 11,300 -780 Descending Jacksonville Center
17:28 29.5736 -81.1231 174° South 197 227 10,600 -840 Descending Jacksonville Center
17:29 29.5156 -81.1386 193° South 200 230 9,600 -840 Descending Jacksonville Center
17:30 29.4611 -81.1394 181° South 199 229 8,800 -780 Descending Jacksonville Center
17:31 29.4069 -81.1453 185° South 193 222 8,100 -900 Descending Jacksonville Center
17:32 29.3528 -81.1486 183° South 192 221 7,200 -900 Descending Jacksonville Center
17:33 29.2986 -81.1519 183° South 194 223 6,300 -840 Descending Jacksonville Center
17:34 29.2464 -81.1553 183° South 192 221 5,500 -540 Descending Jacksonville Center
17:35 29.1500 -81.1500 177° South 161 185 4,900 -240 Descending Orlando TRACON
17:36 29.1167 -81.1667 204° Southwest 158 182 4,900  Level Orlando TRACON
17:38 29.0667 -81.1667 180° South 156 180 4,900  Level Orlando TRACON
17:39 29.0167 -81.1833 196° South 162 186 4,900  Level Orlando TRACON
17:40 28.9667 -81.1833 180° South 157 181 4,900  Level Orlando TRACON
17:41 28.9333 -81.2000 204° Southwest 153 176 4,900 -300 Level Orlando TRACON
17:42 28.9000 -81.2333 221° Southwest 200 230 4,300 -780 Descending Orlando TRACON
17:42 28.8833 -81.2833 249° West 202 232 3,500 -840 Descending Orlando TRACON
17:44 28.8500 -81.3500 240° Southwest 201 231 2,700 -780 Descending Orlando TRACON
17:45 28.8167 -81.4000 233° Southwest 192 221 1,800 -660 Descending Orlando TRACON
17:45 28.7833 -81.4000 180° South 172 198 1,500 -120 Descending Orlando TRACON
17:47 28.7833 -81.3500 90° East 119 137 1,600 -180 Climbing Orlando TRACON
17:48 28.7833 -81.3167 90° East 110 127 1,200 -420 Descending Orlando TRACON
17:50 28.7667 -81.2333 99° East  Level FlightAware Approximate
17:57 28.7767 -81.2355 99° East  Level Estimated
17:58 28.7767 -81.2355 99° East  Level Estimated
17:59 28.7767 -81.2355 99° East  Level Estimated
18:00 28.7767 -81.2355 99° East  Level Estimated